Time;durP1;ratioP1;P1;durP2;ratioP2;P2;SDS_P1;SDS_P2;PMS_P1;PMS_P2;Temp;Humidity;BMP_temperature;BMP_pressure;BME280_temperature;BME280_humidity;BME280_pressure;Samples;Min_cycle;Max_cycle;Signal;HPM_P1;HPM_P2
2022/10/02 00:00:30;;;;;;;0.00;0.00;;;;;;;14.22;72.66;98030.00;8006396;29;20246;-77
2022/10/02 00:04:37;;;;;;;0.00;0.00;;;;;;;14.19;72.59;98034.53;8006630;29;20242;-77
2022/10/02 00:08:41;;;;;;;0.10;0.10;;;;;;;14.27;72.35;98045.34;8006531;29;20530;-77
2022/10/02 00:12:45;;;;;;;0.10;0.10;;;;;;;14.34;72.53;98043.22;8006166;29;20231;-77
2022/10/02 00:16:51;;;;;;;0.00;0.00;;;;;;;14.31;73.14;98054.66;8006208;29;20448;-77
2022/10/02 00:20:59;;;;;;;0.00;0.00;;;;;;;14.34;72.51;98053.66;8006166;29;20548;-77
2022/10/02 00:25:08;;;;;;;0.00;0.00;;;;;;;14.33;73.00;98059.78;8006035;29;20235;-77
2022/10/02 00:29:27;;;;;;;0.10;0.10;;;;;;;14.40;72.37;98051.50;8005914;29;20248;-77
2022/10/02 00:33:42;;;;;;;0.07;0.07;;;;;;;14.40;73.02;98058.50;8005406;29;20240;-78
2022/10/02 00:37:50;;;;;;;0.00;0.00;;;;;;;14.33;73.11;98059.78;8005830;29;20242;-78
2022/10/02 00:42:38;;;;;;;0.00;0.00;;;;;;;14.32;73.36;98063.28;8005511;29;20245;-77
2022/10/02 00:46:46;;;;;;;0.10;0.10;;;;;;;14.37;73.39;98059.50;8005205;29;20240;-77
2022/10/02 00:50:53;;;;;;;0.00;0.00;;;;;;;14.29;73.62;98059.09;8005192;29;20267;-77
2022/10/02 00:55:28;;;;;;;0.00;0.00;;;;;;;14.31;72.97;98052.03;8004937;29;20243;-77
2022/10/02 00:59:52;;;;;;;0.00;0.00;;;;;;;14.31;73.29;98046.81;8000078;29;20239;-77
2022/10/02 01:03:55;;;;;;;0.00;0.00;;;;;;;14.30;73.31;98044.31;8004841;29;20231;-77
2022/10/02 01:07:59;;;;;;;0.00;0.00;;;;;;;14.28;73.59;98053.06;8004510;29;20232;-77
2022/10/02 01:12:04;;;;;;;0.00;0.00;;;;;;;14.26;73.20;98049.72;8004530;29;20310;-77
2022/10/02 01:16:11;;;;;;;0.10;0.10;;;;;;;14.30;73.13;98066.00;8004886;29;20239;-77
2022/10/02 01:20:16;;;;;;;0.00;0.00;;;;;;;14.29;73.14;98072.13;8004467;29;20460;-77
2022/10/02 01:24:22;;;;;;;0.00;0.00;;;;;;;14.27;72.94;98069.59;8004494;29;20254;-77
2022/10/02 01:28:27;;;;;;;0.00;0.00;;;;;;;14.32;73.04;98076.31;8003868;29;20250;-76
2022/10/02 01:32:30;;;;;;;0.00;0.00;;;;;;;14.28;72.81;98073.91;8004056;29;20644;-76
2022/10/02 01:36:33;;;;;;;0.03;0.03;;;;;;;14.24;73.39;98067.19;8004031;29;20239;-77
2022/10/02 01:40:38;;;;;;;0.00;0.00;;;;;;;14.28;73.39;98070.47;8003762;29;20246;-77
2022/10/02 01:44:43;;;;;;;0.03;0.03;;;;;;;14.43;73.05;98076.53;8004100;29;20247;-77
2022/10/02 01:48:47;;;;;;;0.00;0.00;;;;;;;14.41;73.04;98074.03;8003781;29;20243;-76
2022/10/02 01:52:59;;;;;;;0.10;0.10;;;;;;;14.34;73.43;98067.50;8003737;29;20280;-77
2022/10/02 01:57:07;;;;;;;0.00;0.00;;;;;;;14.37;73.60;98064.69;8003484;29;20269;-77
2022/10/02 02:01:20;;;;;;;0.00;0.00;;;;;;;14.44;73.21;98075.63;8003568;29;20232;-76
2022/10/02 02:05:31;;;;;;;0.00;0.00;;;;;;;14.42;73.22;98073.09;8003273;29;20231;-77
2022/10/02 02:09:38;;;;;;;0.00;0.00;;;;;;;14.47;73.19;98083.28;8002179;29;20389;-77
2022/10/02 02:13:45;;;;;;;0.00;0.00;;;;;;;14.45;73.58;98085.13;8003407;29;20295;-76
2022/10/02 02:17:52;;;;;;;0.00;0.00;;;;;;;14.50;73.38;98095.28;8003156;29;20514;-77
2022/10/02 02:21:59;;;;;;;0.00;0.00;;;;;;;14.51;73.16;98079.56;8003031;29;20239;-77
2022/10/02 02:26:04;;;;;;;0.00;0.00;;;;;;;14.51;73.04;98069.13;8002918;29;20235;-77
2022/10/02 02:30:10;;;;;;;0.10;0.10;;;;;;;14.52;73.08;98075.16;8002749;29;20255;-76
2022/10/02 02:34:17;;;;;;;0.00;0.00;;;;;;;14.52;72.96;98083.00;8002950;29;20550;-76
2022/10/02 02:38:24;;;;;;;0.00;0.00;;;;;;;14.43;74.27;98094.78;8002576;29;20251;-77
2022/10/02 02:42:31;;;;;;;0.00;0.00;;;;;;;14.48;73.49;98095.34;8002106;29;20235;-76
2022/10/02 02:47:02;;;;;;;0.00;0.00;;;;;;;14.51;73.32;98103.00;8002429;29;20284;-76
2022/10/02 02:51:07;;;;;;;0.00;0.00;;;;;;;14.45;74.23;98105.97;8001996;29;20302;-77
2022/10/02 02:55:13;;;;;;;0.00;0.00;;;;;;;14.47;73.90;98097.13;8002090;29;20272;-77
2022/10/02 02:59:15;;;;;;;0.00;0.00;;;;;;;14.46;73.30;98087.63;8002097;29;20543;-77
2022/10/02 03:03:18;;;;;;;0.00;0.00;;;;;;;14.47;74.00;98098.91;8002152;29;20288;-77
2022/10/02 03:07:22;;;;;;;0.00;0.00;;;;;;;14.50;73.37;98098.69;8001957;29;20587;-77
2022/10/02 03:11:35;;;;;;;0.00;0.00;;;;;;;14.53;73.51;98089.88;8001257;29;20235;-75
2022/10/02 03:15:44;;;;;;;0.00;0.00;;;;;;;14.51;73.44;98084.75;8001752;29;20247;-76
2022/10/02 03:19:50;;;;;;;0.00;0.00;;;;;;;14.50;73.27;98090.06;8001615;29;20414;-77
2022/10/02 03:24:00;;;;;;;0.00;0.00;;;;;;;14.45;73.44;98091.16;8001765;29;20430;-77
2022/10/02 03:28:06;;;;;;;0.00;0.00;;;;;;;14.53;73.41;98101.16;8001505;29;20235;-77
2022/10/02 03:32:11;;;;;;;0.00;0.00;;;;;;;14.45;73.23;98092.94;8001735;29;20277;-77
2022/10/02 03:36:16;;;;;;;0.00;0.00;;;;;;;14.34;73.29;98084.91;8001450;29;20471;-77
2022/10/02 03:40:23;;;;;;;0.00;0.00;;;;;;;14.48;73.26;98090.13;8001227;29;20291;-77
2022/10/02 03:44:26;;;;;;;0.00;0.00;;;;;;;14.46;72.94;98094.59;8000957;29;20235;-76
2022/10/02 03:48:29;;;;;;;0.00;0.00;;;;;;;14.40;73.64;98108.00;8001212;29;20243;-77
2022/10/02 03:52:34;;;;;;;0.10;0.10;;;;;;;14.42;73.18;98100.94;8000859;29;20291;-77
2022/10/02 03:56:41;;;;;;;0.00;0.00;;;;;;;14.39;72.92;98095.88;8001020;29;20259;-78
2022/10/02 04:00:49;;;;;;;0.00;0.00;;;;;;;14.47;72.84;98101.50;8000873;29;20253;-77
2022/10/02 04:04:55;;;;;;;0.00;0.00;;;;;;;14.55;72.79;98095.84;8000864;29;20251;-77
2022/10/02 04:09:03;;;;;;;0.00;0.00;;;;;;;14.50;72.77;98079.63;8000880;29;20512;-77
2022/10/02 04:13:12;;;;;;;0.00;0.00;;;;;;;14.45;72.65;98078.16;8000824;29;20240;-77
2022/10/02 04:17:19;;;;;;;0.00;0.00;;;;;;;14.53;72.42;98067.28;8000841;29;20256;-76
2022/10/02 04:21:33;;;;;;;0.00;0.00;;;;;;;14.36;72.53;98078.66;8000707;29;20243;-77
2022/10/02 04:25:39;;;;;;;0.00;0.00;;;;;;;14.52;71.96;98090.81;8000271;29;20250;-77
2022/10/02 04:29:48;;;;;;;0.00;0.00;;;;;;;14.47;71.99;98085.88;8001267;29;20239;-77
2022/10/02 04:33:51;;;;;;;0.00;0.00;;;;;;;14.47;72.11;98083.28;8005973;29;20430;-77
2022/10/02 04:38:08;;;;;;;0.10;0.10;;;;;;;14.58;71.39;98099.16;8005366;29;20250;-77
2022/10/02 04:42:30;;;;;;;0.00;0.00;;;;;;;14.53;71.55;98106.34;8005664;29;20297;-76
2022/10/02 04:46:49;;;;;;;0.00;0.00;;;;;;;14.57;71.35;98109.66;8005030;29;20234;-77
2022/10/02 04:50:54;;;;;;;0.00;0.00;;;;;;;14.55;71.77;98111.47;8005148;29;20259;-78
2022/10/02 04:55:12;;;;;;;0.00;0.00;;;;;;;14.56;71.53;98119.19;8005405;29;20270;-77
2022/10/02 04:59:23;;;;;;;0.00;0.00;;;;;;;14.51;71.79;98117.78;8005124;29;20437;-77
2022/10/02 05:03:36;;;;;;;0.00;0.00;;;;;;;14.54;71.89;98115.84;8004693;29;20235;-76
2022/10/02 05:08:00;;;;;;;0.00;0.00;;;;;;;14.62;71.37;98118.88;8004751;29;20246;-77
2022/10/02 05:12:18;;;;;;;0.00;0.00;;;;;;;14.63;71.36;98115.34;8004739;29;20243;-77
2022/10/02 05:16:33;;;;;;;0.00;0.00;;;;;;;14.62;71.15;98121.50;8004835;29;20239;-77
2022/10/02 05:20:48;;;;;;;0.00;0.00;;;;;;;14.64;71.29;98121.38;8004234;29;20263;-77
2022/10/02 05:25:01;;;;;;;0.00;0.00;;;;;;;14.43;71.85;98116.47;8004524;29;20403;-77
2022/10/02 05:29:18;;;;;;;0.00;0.00;;;;;;;14.55;71.93;98119.31;8004138;29;20280;-77
2022/10/02 05:33:46;;;;;;;0.00;0.00;;;;;;;14.72;71.14;98123.56;8004001;29;20297;-77
2022/10/02 05:37:59;;;;;;;0.00;0.00;;;;;;;14.64;71.51;98122.25;8001164;29;20239;-77
2022/10/02 05:42:06;;;;;;;0.00;0.00;;;;;;;14.61;71.74;98114.59;8003656;29;20404;-77
2022/10/02 05:46:13;;;;;;;0.00;0.00;;;;;;;14.68;71.83;98104.66;8003400;29;20240;-76
2022/10/02 05:50:18;;;;;;;0.00;0.00;;;;;;;14.65;71.82;98110.88;8003387;29;20247;-76
2022/10/02 05:54:29;;;;;;;0.00;0.00;;;;;;;14.73;71.36;98114.81;8003330;29;20242;-76
2022/10/02 05:58:34;;;;;;;0.00;0.00;;;;;;;14.62;71.67;98112.81;8002877;29;20244;-76
2022/10/02 06:02:41;;;;;;;0.00;0.00;;;;;;;14.70;71.77;98108.00;8003481;29;20239;-76
2022/10/02 06:06:47;;;;;;;0.00;0.00;;;;;;;14.67;71.65;98116.00;8003201;29;20228;-76
2022/10/02 06:10:54;;;;;;;0.00;0.00;;;;;;;14.66;72.18;98101.31;8003149;29;20243;-76
2022/10/02 06:15:00;;;;;;;0.00;0.00;;;;;;;14.66;72.15;98103.91;8003089;29;20240;-77
2022/10/02 06:19:05;;;;;;;0.00;0.00;;;;;;;14.76;71.34;98112.03;8002905;29;20284;-77
2022/10/02 06:23:11;;;;;;;0.00;0.00;;;;;;;14.76;71.69;98112.03;8002778;29;20313;-77
2022/10/02 06:27:23;;;;;;;0.00;0.00;;;;;;;14.75;71.73;98113.78;8002480;29;20535;-77
2022/10/02 06:31:36;;;;;;;0.00;0.00;;;;;;;14.67;71.96;98116.00;8001954;29;20399;-76
2022/10/02 06:35:51;;;;;;;0.00;0.00;;;;;;;14.83;71.70;98115.91;8002258;29;20474;-76
2022/10/02 06:40:33;;;;;;;0.00;0.00;;;;;;;14.86;71.51;98115.75;8002046;29;20262;-76
2022/10/02 06:44:41;;;;;;;0.00;0.00;;;;;;;14.79;72.36;98117.91;8000252;29;20243;-76
2022/10/02 06:48:51;;;;;;;0.00;0.00;;;;;;;14.84;71.64;98122.81;8002139;29;20259;-76
2022/10/02 06:52:59;;;;;;;0.00;0.00;;;;;;;14.77;72.29;98121.50;8001565;29;20235;-77
2022/10/02 06:57:18;;;;;;;0.00;0.00;;;;;;;14.90;71.96;98119.03;8002096;29;20247;-77
2022/10/02 07:01:31;;;;;;;0.00;0.00;;;;;;;14.85;72.17;98121.91;8001139;29;20270;-77
2022/10/02 07:06:00;;;;;;;0.10;0.10;;;;;;;14.92;71.90;98124.97;8000960;29;20402;-77
2022/10/02 07:10:30;;;;;;;0.00;0.00;;;;;;;14.85;71.91;98133.19;8001501;29;20239;-76
2022/10/02 07:14:52;;;;;;;0.00;0.00;;;;;;;14.77;72.41;98137.16;8001083;29;20235;-77
2022/10/02 07:19:10;;;;;;;0.00;0.00;;;;;;;14.93;71.74;98150.97;8001422;29;20304;-77
2022/10/02 07:23:35;;;;;;;0.00;0.00;;;;;;;14.94;72.07;98130.94;8001053;29;20295;-77
2022/10/02 07:27:44;;;;;;;0.00;0.00;;;;;;;15.01;72.05;98134.88;8001018;29;20530;-76
2022/10/02 07:32:01;;;;;;;0.00;0.00;;;;;;;14.94;72.49;98138.75;8000780;29;20240;-76
2022/10/02 07:36:09;;;;;;;0.00;0.00;;;;;;;14.83;71.77;98145.47;8001182;29;20246;-77
2022/10/02 07:40:27;;;;;;;0.00;0.00;;;;;;;14.85;71.73;98148.00;8000480;29;20250;-76
2022/10/02 07:44:44;;;;;;;0.00;0.00;;;;;;;14.86;72.41;98141.81;8000307;29;20231;-78
2022/10/02 07:48:59;;;;;;;0.00;0.00;;;;;;;14.97;71.34;98143.81;8000449;29;20251;-77
2022/10/02 07:53:09;;;;;;;0.00;0.00;;;;;;;14.91;71.93;98144.16;8000771;29;20535;-78
2022/10/02 07:57:29;;;;;;;0.00;0.00;;;;;;;14.99;71.78;98153.22;8000444;29;20428;-77
2022/10/02 08:01:33;;;;;;;0.00;0.00;;;;;;;14.92;72.50;98149.28;7998760;29;20407;-76
2022/10/02 08:05:40;;;;;;;0.00;0.00;;;;;;;14.95;72.55;98154.31;8002695;29;20418;-77
2022/10/02 08:09:48;;;;;;;0.00;0.00;;;;;;;14.94;72.83;98157.03;8005893;29;20539;-76
2022/10/02 08:13:55;;;;;;;0.00;0.00;;;;;;;14.84;73.26;98156.72;8006154;29;20239;-76
2022/10/02 08:17:59;;;;;;;0.00;0.00;;;;;;;14.94;73.37;98152.63;8005861;29;20409;-76
2022/10/02 08:22:25;;;;;;;0.00;0.00;;;;;;;14.98;73.17;98151.53;8005453;29;20239;-76
2022/10/02 08:26:33;;;;;;;0.00;0.00;;;;;;;14.95;73.47;98154.31;8004948;29;20239;-76
2022/10/02 08:30:38;;;;;;;0.00;0.00;;;;;;;14.95;73.54;98146.50;8005118;29;20240;-76
2022/10/02 08:34:42;;;;;;;0.00;0.00;;;;;;;14.82;74.04;98149.00;8005011;29;20252;-76
2022/10/02 08:38:46;;;;;;;0.00;0.00;;;;;;;15.00;73.89;98144.47;8004959;29;20311;-76
2022/10/02 08:43:33;;;;;;;0.00;0.00;;;;;;;14.96;73.66;98150.78;8004975;29;20523;-76
2022/10/02 08:48:00;;;;;;;0.00;0.00;;;;;;;15.00;73.72;98138.38;8004341;29;20236;-76
2022/10/02 08:52:39;;;;;;;0.00;0.00;;;;;;;15.10;73.40;98138.69;8004645;29;20272;-76
2022/10/02 08:57:03;;;;;;;0.00;0.00;;;;;;;15.03;73.92;98133.00;7972062;29;20327;-77
2022/10/02 09:01:21;;;;;;;0.00;0.00;;;;;;;15.06;73.46;98127.63;8004320;29;20541;-77
2022/10/02 09:05:48;;;;;;;0.00;0.00;;;;;;;15.11;73.24;98124.72;8004335;29;20238;-77
2022/10/02 09:10:27;;;;;;;0.00;0.00;;;;;;;15.01;73.76;98124.44;7996530;29;20235;-77
2022/10/02 09:14:50;;;;;;;0.00;0.00;;;;;;;15.20;73.13;98124.16;7976156;29;20291;-76
2022/10/02 09:19:02;;;;;;;0.00;0.00;;;;;;;15.05;74.27;98115.50;8004028;29;20241;-77
2022/10/02 09:23:21;;;;;;;0.00;0.00;;;;;;;15.25;73.07;98130.78;8004147;29;20243;-77
2022/10/02 09:28:03;;;;;;;0.00;0.00;;;;;;;15.08;73.45;98119.66;8003674;29;20247;-77
2022/10/02 09:32:51;;;;;;;0.00;0.00;;;;;;;15.13;74.27;98126.28;7958644;29;20296;-77
2022/10/02 09:37:18;;;;;;;0.00;0.00;;;;;;;14.97;74.35;98131.59;8003691;29;20239;-76
2022/10/02 09:42:05;;;;;;;0.00;0.00;;;;;;;15.09;74.24;98124.81;8003275;29;20243;-76
2022/10/02 09:46:46;;;;;;;0.00;0.00;;;;;;;15.01;74.42;98122.66;8003531;29;20277;-77
2022/10/02 09:51:05;;;;;;;0.00;0.00;;;;;;;15.03;74.25;98123.41;8003005;29;20273;-77
2022/10/02 09:55:36;;;;;;;0.00;0.00;;;;;;;15.10;74.21;98128.25;8003328;29;20238;-77
2022/10/02 09:59:50;;;;;;;0.00;0.00;;;;;;;15.17;74.21;98121.72;8002874;29;20465;-77
2022/10/02 10:04:24;;;;;;;0.10;0.10;;;;;;;15.18;74.12;98126.88;8003253;29;20259;-77
2022/10/02 10:09:11;;;;;;;0.00;0.00;;;;;;;15.16;74.27;98109.63;8002347;29;20299;-77
2022/10/02 10:13:48;;;;;;;0.00;0.00;;;;;;;15.34;73.74;98110.28;8002414;29;20244;-77
2022/10/02 10:18:14;;;;;;;0.10;0.10;;;;;;;15.31;74.24;98106.09;8002064;29;20247;-76
2022/10/02 10:22:51;;;;;;;0.00;0.00;;;;;;;15.37;73.63;98102.28;8002261;29;20539;-76
2022/10/02 10:27:28;;;;;;;0.00;0.00;;;;;;;15.39;74.18;98111.66;7972160;29;20231;-77
2022/10/02 10:31:53;;;;;;;0.00;0.00;;;;;;;15.34;74.41;98105.88;8001837;29;20240;-76
2022/10/02 10:41:20;;;;;;;0.10;0.10;;;;;;;15.31;74.03;98093.03;7999313;29;20235;-77
2022/10/02 10:45:36;;;;;;;0.00;0.00;;;;;;;15.27;74.44;98106.34;8002073;29;20251;-77
2022/10/02 10:50:02;;;;;;;0.10;0.10;;;;;;;15.33;74.24;98104.22;8001433;29;20235;-77
2022/10/02 10:54:43;;;;;;;0.00;0.00;;;;;;;15.39;74.28;98111.66;8001756;29;20487;-77
2022/10/02 10:59:05;;;;;;;0.00;0.00;;;;;;;15.37;73.97;98112.72;8001272;29;20251;-77
2022/10/02 11:03:28;;;;;;;0.00;0.00;;;;;;;15.38;73.96;98109.16;8001409;29;20239;-77
2022/10/02 11:07:49;;;;;;;0.00;0.00;;;;;;;15.34;74.06;98098.06;8000952;29;20246;-77
2022/10/02 11:12:20;;;;;;;0.00;0.00;;;;;;;15.38;74.00;98103.94;8001517;29;20254;-77
2022/10/02 11:16:33;;;;;;;0.00;0.00;;;;;;;15.29;74.35;98096.66;8001320;29;20246;-77
2022/10/02 11:20:55;;;;;;;0.00;0.00;;;;;;;15.43;74.24;98101.88;8000751;29;20256;-77
2022/10/02 11:25:26;;;;;;;0.00;0.00;;;;;;;15.36;74.60;98109.22;8001674;29;20231;-77
2022/10/02 11:30:04;;;;;;;0.00;0.00;;;;;;;15.37;74.74;98110.09;8001350;29;20235;-76
2022/10/02 11:34:32;;;;;;;0.00;0.00;;;;;;;15.36;74.67;98114.44;8001580;29;20236;-77
2022/10/02 11:38:56;;;;;;;0.00;0.00;;;;;;;15.35;74.64;98114.56;8000847;29;20254;-77
2022/10/02 11:43:12;;;;;;;0.00;0.00;;;;;;;15.36;74.91;98119.66;8001412;29;20247;-77
2022/10/02 11:47:30;;;;;;;0.00;0.00;;;;;;;15.35;75.23;98120.63;8000992;29;20252;-77
2022/10/02 11:51:53;;;;;;;0.00;0.00;;;;;;;15.37;75.37;98121.38;8000456;29;20240;-75
2022/10/02 11:56:09;;;;;;;0.00;0.00;;;;;;;15.37;75.24;98120.53;8001103;29;20465;-75
2022/10/02 12:00:41;;;;;;;0.00;0.00;;;;;;;15.32;75.06;98109.53;8000850;29;20244;-76
2022/10/02 12:04:54;;;;;;;0.00;0.00;;;;;;;15.26;74.83;98097.69;8000633;29;20274;-75
2022/10/02 12:09:02;;;;;;;0.00;0.00;;;;;;;15.31;74.52;98087.81;8000882;29;20591;-76
2022/10/02 12:13:19;;;;;;;0.00;0.00;;;;;;;15.30;75.12;98088.75;8000863;29;20239;-76
2022/10/02 12:17:58;;;;;;;0.03;0.03;;;;;;;15.30;74.71;98101.78;8000828;29;20251;-75
2022/10/02 12:27:02;;;;;;;0.00;0.00;;;;;;;15.42;74.40;98093.22;8000496;29;20246;-75
2022/10/02 12:31:10;;;;;;;0.00;0.00;;;;;;;15.29;74.86;98073.19;8000565;29;20311;-75
2022/10/02 12:35:26;;;;;;;0.00;0.00;;;;;;;15.31;74.67;98071.34;8000773;29;20240;-75
2022/10/02 12:39:40;;;;;;;0.00;0.00;;;;;;;15.36;74.86;98090.13;7999934;29;20342;-75
2022/10/02 12:43:56;;;;;;;0.00;0.00;;;;;;;15.48;74.43;98088.53;7999690;29;20247;-75
2022/10/02 12:48:10;;;;;;;0.00;0.00;;;;;;;15.40;74.54;98097.69;8000332;29;20288;-76
2022/10/02 12:52:39;;;;;;;0.00;0.00;;;;;;;15.49;73.97;98103.28;8002747;29;20320;-76
2022/10/02 12:56:59;;;;;;;0.00;0.00;;;;;;;15.43;74.51;98109.72;8005098;29;20242;-75
2022/10/02 13:01:30;;;;;;;0.00;0.00;;;;;;;15.40;74.55;98112.50;8005282;29;20243;-76
2022/10/02 13:05:49;;;;;;;0.00;0.00;;;;;;;15.25;74.97;98104.69;8004730;29;20258;-75
2022/10/02 13:09:56;;;;;;;0.00;0.00;;;;;;;15.29;75.24;98107.97;8005178;29;20247;-75
2022/10/02 13:14:14;;;;;;;0.00;0.00;;;;;;;15.22;74.86;98106.66;8004828;29;20243;-75
2022/10/02 13:18:32;;;;;;;0.10;0.10;;;;;;;15.30;74.90;98114.00;8004990;29;20239;-77
2022/10/02 13:22:42;;;;;;;0.00;0.00;;;;;;;15.22;75.14;98112.69;8004164;29;20436;-76
2022/10/02 13:26:51;;;;;;;0.10;0.10;;;;;;;15.32;75.27;98104.31;8004710;29;20243;-76
2022/10/02 13:31:00;;;;;;;0.00;0.00;;;;;;;15.28;75.25;98095.84;8004636;29;20236;-76
2022/10/02 13:35:20;;;;;;;0.00;0.00;;;;;;;15.34;74.71;98090.22;8004437;29;20292;-76
2022/10/02 13:39:43;;;;;;;0.00;0.00;;;;;;;15.39;74.87;98088.19;8004167;29;20243;-76
2022/10/02 13:43:59;;;;;;;0.03;0.03;;;;;;;15.42;74.60;98084.53;8003932;29;20535;-76
2022/10/02 13:48:11;;;;;;;0.00;0.00;;;;;;;15.34;75.23;98085.00;8004056;29;20240;-76
2022/10/02 13:52:20;;;;;;;0.00;0.00;;;;;;;15.29;75.57;98091.44;8004104;29;20235;-77
2022/10/02 13:56:38;;;;;;;0.10;0.10;;;;;;;15.43;74.97;98088.84;8003855;29;20330;-76
2022/10/02 14:01:10;;;;;;;0.10;0.10;;;;;;;15.40;74.95;98081.19;8003582;29;20235;-76
2022/10/02 14:05:23;;;;;;;0.00;0.00;;;;;;;15.37;75.00;98079.63;7990731;29;20375;-76
2022/10/02 14:09:34;;;;;;;0.03;0.03;;;;;;;15.41;75.30;98081.09;8002625;29;20239;-75
2022/10/02 14:13:51;;;;;;;0.00;0.00;;;;;;;15.55;74.67;98072.38;8003373;29;20239;-76
2022/10/02 14:18:12;;;;;;;0.00;0.00;;;;;;;15.58;74.51;98077.44;8003149;29;20242;-76
2022/10/02 14:22:36;;;;;;;0.00;0.00;;;;;;;15.43;74.86;98083.63;8002917;29;20315;-76
2022/10/02 14:26:54;;;;;;;0.00;0.00;;;;;;;15.44;74.85;98069.66;8002849;29;20239;-76
2022/10/02 14:31:13;;;;;;;0.00;0.00;;;;;;;15.53;74.55;98070.81;8003227;29;20287;-76
2022/10/02 14:35:31;;;;;;;0.10;0.10;;;;;;;15.40;74.17;98082.03;8002794;29;20565;-76
2022/10/02 14:39:35;;;;;;;0.00;0.00;;;;;;;15.42;74.23;98085.38;8002461;29;20243;-76
2022/10/02 14:44:07;;;;;;;0.00;0.00;;;;;;;15.45;74.29;98093.00;8002725;29;20252;-76
2022/10/02 14:48:17;;;;;;;0.00;0.00;;;;;;;15.42;74.74;98097.56;7982304;29;20262;-76
2022/10/02 14:52:37;;;;;;;0.00;0.00;;;;;;;15.31;75.30;98093.03;8002481;29;20239;-76
2022/10/02 14:56:48;;;;;;;0.03;0.03;;;;;;;15.33;75.09;98092.97;8002240;29;20408;-76
2022/10/02 15:01:03;;;;;;;0.00;0.00;;;;;;;15.42;75.08;98100.19;8002354;29;20527;-76
2022/10/02 15:05:23;;;;;;;0.00;0.00;;;;;;;15.47;74.58;98105.16;8002303;29;20240;-76
2022/10/02 15:09:35;;;;;;;0.00;0.00;;;;;;;15.48;74.46;98106.81;8001596;29;20239;-75
2022/10/02 15:13:43;;;;;;;0.00;0.00;;;;;;;15.35;74.90;98107.56;8001748;29;20252;-76
2022/10/02 15:17:55;;;;;;;0.00;0.00;;;;;;;15.25;75.15;98111.69;8002002;29;20259;-76
2022/10/02 15:21:59;;;;;;;0.00;0.00;;;;;;;15.27;75.52;98119.41;8001920;29;20239;-75
2022/10/02 15:26:10;;;;;;;0.00;0.00;;;;;;;15.27;75.09;98106.34;8001838;29;20269;-76
2022/10/02 15:30:18;;;;;;;0.00;0.00;;;;;;;15.21;75.10;98112.78;8001624;29;20553;-76
2022/10/02 15:34:26;;;;;;;0.00;0.00;;;;;;;15.29;75.33;98121.00;8001875;29;20238;-77
2022/10/02 15:38:56;;;;;;;0.00;0.00;;;;;;;15.21;74.67;98115.38;8001031;29;20243;-76
2022/10/02 15:43:04;;;;;;;0.00;0.00;;;;;;;15.28;74.29;98108.03;8000309;29;20284;-76
2022/10/02 15:47:18;;;;;;;0.00;0.00;;;;;;;15.31;74.06;98107.88;8001470;29;20236;-76
2022/10/02 15:51:32;;;;;;;0.00;0.00;;;;;;;15.29;74.95;98110.56;8001231;29;20243;-76
2022/10/02 15:55:40;;;;;;;0.00;0.00;;;;;;;15.22;75.40;98114.47;8001079;29;20235;-76
2022/10/02 15:59:54;;;;;;;0.00;0.00;;;;;;;15.26;74.62;98110.75;8001306;29;20266;-76
2022/10/02 16:04:01;;;;;;;0.00;0.00;;;;;;;15.30;74.39;98096.56;8001012;29;20259;-76
2022/10/02 16:08:19;;;;;;;0.00;0.00;;;;;;;15.19;74.34;98094.63;8000943;29;20412;-75
2022/10/02 16:12:31;;;;;;;0.00;0.00;;;;;;;15.25;74.24;98114.31;8001102;29;20239;-76
2022/10/02 16:17:01;;;;;;;0.00;0.00;;;;;;;15.23;74.36;98121.34;8000613;29;20231;-76
2022/10/02 16:21:12;;;;;;;0.00;0.00;;;;;;;15.11;75.33;98109.91;8000775;29;20239;-76
2022/10/02 16:25:33;;;;;;;0.00;0.00;;;;;;;15.16;74.58;98110.47;7998358;29;20257;-77
2022/10/02 16:29:42;;;;;;;0.00;0.00;;;;;;;15.11;74.94;98096.84;8011522;29;20431;-76
2022/10/02 16:33:57;;;;;;;0.00;0.00;;;;;;;15.11;74.75;98111.69;8006007;29;20247;-76
2022/10/02 16:38:05;;;;;;;0.00;0.00;;;;;;;15.00;75.01;98130.56;8006043;29;20239;-76
2022/10/02 16:42:20;;;;;;;0.00;0.00;;;;;;;15.00;74.78;98114.91;8005923;29;20517;-76
2022/10/02 16:46:25;;;;;;;0.00;0.00;;;;;;;15.01;74.84;98122.66;8005622;29;20231;-76
2022/10/02 16:50:36;;;;;;;0.00;0.00;;;;;;;14.99;74.13;98128.91;8005273;29;20247;-75
2022/10/02 16:54:47;;;;;;;0.00;0.00;;;;;;;14.89;74.92;98143.41;8005370;29;20519;-76
2022/10/02 16:58:55;;;;;;;0.00;0.00;;;;;;;14.78;75.77;98133.63;8005590;29;20399;-75
2022/10/02 17:03:09;;;;;;;0.00;0.00;;;;;;;14.85;75.01;98141.00;8005562;29;20243;-76
2022/10/02 17:07:28;;;;;;;0.10;0.10;;;;;;;14.82;75.20;98151.59;8004503;29;20231;-76
2022/10/02 17:11:34;;;;;;;0.00;0.00;;;;;;;14.80;75.63;98155.22;8004787;29;20244;-75
2022/10/02 17:15:42;;;;;;;0.00;0.00;;;;;;;14.82;75.10;98169.84;8005344;29;20239;-76
2022/10/02 17:19:49;;;;;;;0.00;0.00;;;;;;;14.71;75.20;98176.63;8004424;29;20561;-76
2022/10/02 17:24:15;;;;;;;0.00;0.00;;;;;;;14.68;75.43;98189.81;8004503;29;20534;-77
2022/10/02 17:28:22;;;;;;;0.00;0.00;;;;;;;14.66;75.75;98189.94;8004883;29;20235;-76
2022/10/02 17:32:38;;;;;;;0.00;0.00;;;;;;;14.69;75.23;98191.50;8004136;29;20239;-75
2022/10/02 17:36:46;;;;;;;0.00;0.00;;;;;;;14.66;75.43;98202.97;8004192;29;20411;-76
2022/10/02 17:40:55;;;;;;;0.10;0.10;;;;;;;14.58;76.07;98207.75;8004381;29;20261;-76
2022/10/02 17:45:06;;;;;;;0.10;0.10;;;;;;;14.62;75.46;98202.28;8004523;29;20259;-76
2022/10/02 17:49:15;;;;;;;0.00;0.00;;;;;;;14.55;75.49;98207.91;8004448;29;20316;-77
2022/10/02 17:57:59;;;;;;;0.10;0.10;;;;;;;14.61;75.06;98223.22;8003659;29;20239;-78
2022/10/02 18:02:10;;;;;;;0.00;0.00;;;;;;;14.50;74.98;98234.22;8003459;29;20251;-77
2022/10/02 18:06:21;;;;;;;0.10;0.10;;;;;;;14.45;75.34;98237.09;8002700;29;20555;-77
2022/10/02 18:10:31;;;;;;;0.00;0.00;;;;;;;14.50;75.78;98235.97;8003165;29;20435;-77
2022/10/02 18:14:54;;;;;;;0.00;0.00;;;;;;;14.47;75.01;98240.44;8002920;29;20337;-77
2022/10/02 18:19:19;;;;;;;0.10;0.10;;;;;;;14.38;74.88;98251.38;8003256;29;20231;-76
2022/10/02 18:23:42;;;;;;;0.10;0.10;;;;;;;14.42;75.61;98260.69;8003051;29;20255;-77
2022/10/02 18:27:56;;;;;;;0.00;0.00;;;;;;;14.36;75.12;98265.41;8000737;29;20248;-77
2022/10/02 18:32:15;;;;;;;0.00;0.00;;;;;;;14.37;75.23;98278.34;8002884;29;20307;-77
2022/10/02 18:36:29;;;;;;;0.00;0.00;;;;;;;14.32;75.40;98282.13;8002817;29;20306;-78
2022/10/02 18:40:35;;;;;;;0.00;0.00;;;;;;;14.31;75.60;98291.69;8001691;29;20239;-77
2022/10/02 18:44:48;;;;;;;0.00;0.00;;;;;;;14.35;74.98;98292.38;8002278;29;20255;-76
2022/10/02 18:49:06;;;;;;;0.00;0.00;;;;;;;14.26;75.33;98296.34;8001666;29;20252;-76
2022/10/02 18:53:27;;;;;;;0.00;0.00;;;;;;;14.20;75.69;98300.13;8002360;29;20292;-76
2022/10/02 18:57:40;;;;;;;0.00;0.00;;;;;;;14.25;75.68;98308.50;8001767;29;20259;-77
2022/10/02 19:01:50;;;;;;;0.00;0.00;;;;;;;14.26;75.60;98302.38;8002193;29;20288;-76
2022/10/02 19:05:57;;;;;;;0.00;0.00;;;;;;;14.32;75.41;98300.34;8002142;29;20262;-77
2022/10/02 19:10:25;;;;;;;0.10;0.10;;;;;;;14.28;74.69;98300.53;8001469;29;20239;-76
2022/10/02 19:14:35;;;;;;;0.00;0.00;;;;;;;14.27;75.17;98309.25;8000637;29;20243;-76
2022/10/02 19:18:37;;;;;;;0.00;0.00;;;;;;;14.18;75.58;98320.16;8001030;29;20543;-76
2022/10/02 19:22:41;;;;;;;0.00;0.00;;;;;;;14.11;75.38;98334.47;8000889;29;20301;-76
2022/10/02 19:26:47;;;;;;;0.00;0.00;;;;;;;14.15;75.49;98338.59;8000686;29;20243;-76
2022/10/02 19:30:52;;;;;;;0.00;0.00;;;;;;;14.13;75.23;98340.44;8000757;29;20240;-76
2022/10/02 19:35:05;;;;;;;0.00;0.00;;;;;;;14.13;74.96;98337.00;8000793;29;20242;-77
2022/10/02 19:39:29;;;;;;;0.00;0.00;;;;;;;14.21;74.05;98338.25;8000710;29;20243;-77
2022/10/02 19:43:33;;;;;;;0.00;0.00;;;;;;;14.25;74.37;98344.97;7999879;29;20251;-76
2022/10/02 19:47:39;;;;;;;0.03;0.03;;;;;;;14.14;75.06;98360.31;8000409;29;20428;-76
2022/10/02 19:51:43;;;;;;;0.10;0.10;;;;;;;14.18;74.63;98361.00;8000813;29;20239;-77
2022/10/02 19:55:49;;;;;;;0.00;0.00;;;;;;;14.06;74.83;98372.91;8000567;29;20244;-77
2022/10/02 19:59:53;;;;;;;0.00;0.00;;;;;;;14.05;74.68;98376.44;8001558;29;20238;-77
2022/10/02 20:03:57;;;;;;;0.00;0.00;;;;;;;14.19;73.91;98384.38;8005084;29;20239;-77
2022/10/02 20:08:04;;;;;;;0.10;0.10;;;;;;;14.10;74.58;98391.84;8006435;29;20240;-77
2022/10/02 20:12:13;;;;;;;0.10;0.10;;;;;;;14.11;74.07;98393.50;8005762;29;20302;-76